Fairchilds, Texas
Current Conditions -  °F | °C
As of 3:21 PM on Friday 19 Dec 2014 (Local Time) from KSGR Reporting Station
Overcast Overcast  
Wind Chill: 56°   Ceiling: 9500
Heat Index: 56°   Visibility: 10mi
Dew Point: 52°   Wind: 14mph
Humidity: 87%   Direction: 40°NE
Pressure: 30.01"   Gusts: NA
Location:  29.3854°N, 95.8138°W
Report Text: KSGR 192121Z AUTO 04012KT 10SM SCT011 BKN095 OVC110 13/11 A3001 RMK AO2 T01330111
Loading
Personal Weather Stations






























Interactive Weather Map New forecast layout! Learn more

10-Day Weather Forecast

Advertisements
Track Severe Weather on mobile